Time;durP1;ratioP1;P1;durP2;ratioP2;P2;SDS_P1;SDS_P2;PMS_P1;PMS_P2;Temp;Humidity;BMP_temperature;BMP_pressure;BME280_temperature;BME280_humidity;BME280_pressure;Samples;Min_cycle;Max_cycle;Signal;HPM_P1;HPM_P2
2022/03/05 00:01:07;;;;;;;78.75;35.75;;;;;;;4.88;57.17;100224.50;4456729;31;33981;-89
2022/03/05 00:03:36;;;;;;;67.00;32.92;;;;;;;4.90;57.06;100215.78;4472994;31;33861;-90
2022/03/05 00:06:03;;;;;;;58.15;29.27;;;;;;;5.05;56.79;100226.03;4450170;32;33329;-89
2022/03/05 00:08:31;;;;;;;59.08;29.05;;;;;;;5.27;55.70;100216.97;4456297;32;34410;-88
2022/03/05 00:10:59;;;;;;;63.35;30.55;;;;;;;5.11;56.19;100228.53;4473283;32;33546;-89
2022/03/05 00:13:27;;;;;;;60.70;29.40;;;;;;;4.82;57.12;100224.59;4459560;31;33889;-89
2022/03/05 00:15:55;;;;;;;68.03;30.62;;;;;;;4.76;57.50;100224.69;4460811;31;33971;-89
2022/03/05 00:18:23;;;;;;;63.03;31.83;;;;;;;4.99;56.88;100218.28;4463065;32;34384;-89
2022/03/05 00:20:53;;;;;;;66.78;30.37;;;;;;;4.82;57.30;100211.50;4471618;31;33408;-87
2022/03/05 00:23:21;;;;;;;69.28;31.70;;;;;;;4.82;57.41;100221.97;4470670;32;33398;-86
2022/03/05 00:25:49;;;;;;;76.18;33.30;;;;;;;4.76;57.80;100222.06;4459764;31;32864;-85
2022/03/05 00:28:16;;;;;;;64.40;31.70;;;;;;;4.83;57.58;100218.47;4446711;31;33874;-86
2022/03/05 00:30:45;;;;;;;61.15;33.05;;;;;;;4.83;57.81;100218.47;4452748;32;32656;-87
2022/03/05 00:33:13;;;;;;;70.07;31.30;;;;;;;4.79;57.94;100216.75;4471053;32;33200;-87
2022/03/05 00:35:41;;;;;;;69.50;31.80;;;;;;;4.95;57.43;100219.19;4457309;32;33809;-87
2022/03/05 00:38:09;;;;;;;64.75;33.00;;;;;;;4.99;57.36;100215.66;4471180;31;34607;-88
2022/03/05 00:40:39;;;;;;;72.32;32.17;;;;;;;4.91;57.55;100207.91;4445790;31;32796;-88
2022/03/05 00:43:07;;;;;;;62.83;30.73;;;;;;;5.08;57.07;100220.72;4463898;32;33165;-88
2022/03/05 00:45:36;;;;;;;63.97;29.25;;;;;;;5.03;57.02;100217.31;4471191;32;33115;-88
2022/03/05 00:48:04;;;;;;;50.05;26.10;;;;;;;5.11;56.85;100205.84;4463749;32;33035;-88
2022/03/05 00:50:32;;;;;;;44.30;23.02;;;;;;;5.11;56.65;100210.22;4453652;32;32814;-88
2022/03/05 00:53:00;;;;;;;49.03;23.55;;;;;;;5.03;56.68;100209.47;4451576;32;32889;-88
2022/03/05 00:55:28;;;;;;;43.38;21.70;;;;;;;4.83;57.03;100205.38;4464848;32;33645;-87
2022/03/05 00:57:56;;;;;;;47.40;22.90;;;;;;;5.01;56.55;100203.41;4462371;32;32919;-87
2022/03/05 01:00:24;;;;;;;49.08;22.25;;;;;;;5.05;56.34;100198.09;4456249;32;32289;-86
2022/03/05 01:02:52;;;;;;;43.25;20.05;;;;;;;4.87;56.85;100201.84;4463650;32;34968;-87
2022/03/05 01:05:20;;;;;;;40.90;21.33;;;;;;;4.88;56.77;100193.09;4450274;32;32799;-87
2022/03/05 01:07:48;;;;;;;34.80;18.30;;;;;;;5.06;56.23;100191.09;4457223;31;32854;-87
2022/03/05 01:10:16;;;;;;;36.45;18.62;;;;;;;5.14;55.87;100197.09;4458371;31;32639;-87
2022/03/05 01:12:44;;;;;;;36.45;19.20;;;;;;;5.05;55.81;100195.47;4463623;32;32830;-89
2022/03/05 01:15:11;;;;;;;44.25;20.85;;;;;;;4.88;56.06;100193.09;4461290;32;33584;-89
2022/03/05 01:17:40;;;;;;;45.72;20.12;;;;;;;5.01;55.42;100192.94;4458001;32;33516;-89
2022/03/05 01:20:08;;;;;;;42.70;20.70;;;;;;;4.78;56.18;100196.72;4454484;32;32477;-90
2022/03/05 01:22:36;;;;;;;48.28;22.95;;;;;;;4.57;56.82;100194.41;4458955;31;32835;-87
2022/03/05 01:25:05;;;;;;;39.50;20.70;;;;;;;4.56;57.11;100190.06;4457103;32;33549;-87
2022/03/05 01:27:32;;;;;;;39.63;19.92;;;;;;;4.70;56.83;100197.72;4450998;31;32279;-87
2022/03/05 01:30:00;;;;;;;39.00;18.85;;;;;;;4.97;56.01;100191.25;4462530;32;32346;-87
2022/03/05 01:32:29;;;;;;;44.15;20.70;;;;;;;4.99;55.83;100189.47;4465102;32;33047;-87
2022/03/05 01:34:56;;;;;;;47.88;21.70;;;;;;;5.03;55.70;100196.37;4451494;32;34652;-87
2022/03/05 01:37:24;;;;;;;39.47;20.67;;;;;;;5.06;55.50;100193.72;4457877;31;32688;-88
2022/03/05 01:39:52;;;;;;;43.53;20.27;;;;;;;4.86;56.25;100194.88;4445927;32;31824;-87
2022/03/05 01:42:20;;;;;;;42.80;18.67;;;;;;;5.02;55.77;100194.66;4459795;32;33390;-88
2022/03/05 01:44:48;;;;;;;36.42;18.02;;;;;;;5.00;55.79;100191.22;4450862;32;33208;-90
2022/03/05 01:47:16;;;;;;;38.17;19.35;;;;;;;4.88;55.92;100192.22;4457484;32;33258;-89
2022/03/05 01:49:44;;;;;;;39.15;18.92;;;;;;;5.04;55.50;100195.50;4450978;31;32325;-88
2022/03/05 01:52:13;;;;;;;31.60;16.52;;;;;;;5.05;55.33;100198.09;4460509;31;33834;-88
2022/03/05 01:54:42;;;;;;;33.22;16.77;;;;;;;5.06;55.18;100202.44;4462947;32;33376;-88
2022/03/05 01:57:11;;;;;;;27.42;14.95;;;;;;;5.01;55.21;100192.94;4462720;32;33805;-89
2022/03/05 01:59:39;;;;;;;29.17;15.18;;;;;;;4.99;55.11;100206.03;4449142;32;33433;-88
2022/03/05 02:02:07;;;;;;;34.17;15.18;;;;;;;4.96;55.08;100199.97;4470814;31;34582;-88
2022/03/05 02:04:35;;;;;;;28.67;14.85;;;;;;;4.91;55.05;100209.66;4462094;31;33838;-88
2022/03/05 02:07:04;;;;;;;32.22;14.70;;;;;;;4.76;55.12;100203.75;4447864;31;32947;-89
2022/03/05 02:09:32;;;;;;;31.70;14.32;;;;;;;4.80;54.94;100208.06;4449587;32;33097;-89
2022/03/05 02:12:00;;;;;;;29.58;13.75;;;;;;;4.80;54.90;100208.06;4459224;32;33721;-89
2022/03/05 02:14:29;;;;;;;31.83;16.37;;;;;;;4.69;55.02;100204.69;4469835;32;34098;-89
2022/03/05 02:16:57;;;;;;;45.67;18.45;;;;;;;4.73;54.84;100209.00;4465148;32;32730;-86
2022/03/05 02:19:24;;;;;;;35.50;17.95;;;;;;;4.66;54.76;100212.59;4471364;32;33297;-86
2022/03/05 02:21:53;;;;;;;35.25;18.65;;;;;;;4.37;55.38;100210.37;4469880;32;33982;-86
2022/03/05 02:24:33;;;;;;;39.10;18.58;;;;;;;4.47;55.10;100218.97;4471447;32;33382;-86
2022/03/05 02:27:03;;;;;;;42.42;19.95;;;;;;;4.48;55.00;100218.06;4472752;31;33627;-86
2022/03/05 02:29:31;;;;;;;37.63;18.62;;;;;;;4.38;55.09;100217.31;4470908;32;33183;-88
2022/03/05 02:31:59;;;;;;;47.22;20.80;;;;;;;4.42;55.05;100223.37;4469292;32;34961;-87
2022/03/05 02:34:28;;;;;;;37.47;19.00;;;;;;;4.49;54.66;100219.78;4460144;31;33939;-89
2022/03/05 02:36:57;;;;;;;41.63;20.85;;;;;;;4.57;54.36;100223.19;4457908;31;32831;-88
2022/03/05 02:39:25;;;;;;;38.75;20.20;;;;;;;4.57;54.21;100212.72;4456371;31;32797;-88
2022/03/05 02:41:54;;;;;;;44.88;20.55;;;;;;;4.20;55.17;100222.75;4467450;32;33255;-89
2022/03/05 02:44:23;;;;;;;39.80;19.77;;;;;;;4.46;54.50;100219.81;4455461;32;33532;-89
2022/03/05 02:46:51;;;;;;;51.78;20.98;;;;;;;4.54;54.16;100215.38;4445925;31;33348;-89
2022/03/05 02:49:19;;;;;;;43.80;21.05;;;;;;;4.52;54.17;100219.75;4451942;32;32748;-89
2022/03/05 02:51:47;;;;;;;39.60;19.87;;;;;;;4.53;54.12;100216.25;4457906;32;33183;-89
2022/03/05 02:54:14;;;;;;;43.08;21.27;;;;;;;4.51;54.09;100218.00;4447453;32;33769;-88
2022/03/05 02:56:42;;;;;;;45.72;19.98;;;;;;;4.56;54.00;100219.72;4450335;32;34612;-89
2022/03/05 02:59:10;;;;;;;39.67;19.67;;;;;;;4.61;53.82;100214.41;4469346;32;33184;-89
2022/03/05 03:01:38;;;;;;;40.83;20.37;;;;;;;4.49;54.04;100225.03;4468295;32;33428;-89
2022/03/05 03:04:06;;;;;;;42.40;20.40;;;;;;;4.43;54.04;100214.66;4462620;31;33987;-88
2022/03/05 03:06:34;;;;;;;40.70;20.45;;;;;;;4.55;53.67;100215.34;4456680;32;34525;-89
2022/03/05 03:09:02;;;;;;;48.33;21.25;;;;;;;4.54;53.63;100218.84;4456746;32;33146;-88
2022/03/05 03:11:30;;;;;;;43.63;20.02;;;;;;;4.45;53.84;100216.34;4449165;32;33117;-87
2022/03/05 03:13:58;;;;;;;41.35;21.12;;;;;;;4.40;53.99;100218.16;4448360;32;33840;-87
2022/03/05 03:16:26;;;;;;;42.83;19.70;;;;;;;4.31;54.31;100221.72;4447355;32;33313;-89
2022/03/05 03:18:54;;;;;;;45.25;21.45;;;;;;;4.07;54.89;100222.00;4456916;32;33913;-88
2022/03/05 03:21:22;;;;;;;47.10;21.35;;;;;;;4.04;54.99;100224.66;4460057;31;33612;-88
2022/03/05 03:23:49;;;;;;;39.78;19.20;;;;;;;4.10;54.72;100224.59;4449446;31;33380;-86
2022/03/05 03:26:17;;;;;;;48.63;22.48;;;;;;;4.11;54.51;100224.56;4446950;32;32892;-87
2022/03/05 03:28:45;;;;;;;45.15;20.95;;;;;;;4.19;54.36;100221.88;4454970;32;32232;-87
2022/03/05 03:31:12;;;;;;;37.15;19.92;;;;;;;4.12;54.52;100220.19;4456350;32;34684;-86
2022/03/05 03:33:40;;;;;;;43.03;19.52;;;;;;;4.20;54.43;100218.38;4460401;31;32848;-87
2022/03/05 03:36:08;;;;;;;49.42;22.37;;;;;;;4.24;54.30;100217.47;4457264;31;34092;-88
2022/03/05 03:38:36;;;;;;;40.30;19.65;;;;;;;4.23;54.28;100218.34;4449137;32;34014;-87
2022/03/05 03:41:04;;;;;;;45.75;20.35;;;;;;;4.29;54.20;100220.91;4466953;32;32999;-86
2022/03/05 03:43:31;;;;;;;42.03;19.50;;;;;;;4.40;54.00;100215.53;4463449;32;33164;-85
2022/03/05 03:45:59;;;;;;;46.08;19.85;;;;;;;4.09;54.67;100217.66;4484981;32;34502;-85
2022/03/05 03:48:26;;;;;;;33.92;18.87;;;;;;;4.36;53.97;100225.16;4459295;32;33185;-85
2022/03/05 03:50:55;;;;;;;39.10;19.67;;;;;;;4.34;54.03;100219.09;4463954;32;33800;-86
2022/03/05 03:53:23;;;;;;;41.00;18.55;;;;;;;4.50;53.71;100216.28;4462067;31;33655;-87
2022/03/05 03:55:51;;;;;;;41.50;18.92;;;;;;;4.33;53.98;100219.97;4466007;32;34351;-87
2022/03/05 03:58:19;;;;;;;42.83;20.62;;;;;;;4.44;53.76;100217.22;4471601;32;33421;-86
2022/03/05 04:00:47;;;;;;;39.63;18.55;;;;;;;4.19;54.39;100214.03;4451611;32;32415;-87
2022/03/05 04:03:15;;;;;;;38.22;19.10;;;;;;;4.22;54.17;100216.59;4468916;32;34749;-87
2022/03/05 04:05:43;;;;;;;38.50;17.90;;;;;;;4.09;54.70;100212.41;4446469;32;34197;-87
2022/03/05 04:10:57;;;;;;;35.50;18.45;;;;;;;4.21;54.40;100216.63;4452675;32;34548;-87
2022/03/05 04:13:24;;;;;;;42.47;19.27;;;;;;;4.22;54.40;100219.22;4448874;31;33666;-87
2022/03/05 04:15:52;;;;;;;30.45;17.77;;;;;;;4.34;54.10;100216.47;4450766;31;33956;-86
2022/03/05 04:18:20;;;;;;;37.13;17.25;;;;;;;4.36;54.04;100222.53;4470876;32;33228;-86
2022/03/05 04:20:48;;;;;;;34.65;16.52;;;;;;;4.33;53.94;100229.56;4453585;31;33178;-86
2022/03/05 04:23:15;;;;;;;41.15;18.33;;;;;;;4.38;53.73;100227.78;4458405;31;33600;-87
2022/03/05 04:25:43;;;;;;;36.35;18.00;;;;;;;4.40;53.62;100240.81;4458832;31;33265;-87
2022/03/05 04:28:11;;;;;;;32.33;15.82;;;;;;;4.34;53.73;100237.37;4471462;31;33626;-86
2022/03/05 04:30:38;;;;;;;33.90;15.43;;;;;;;4.32;53.62;100238.28;4461632;31;34022;-86
2022/03/05 04:33:07;;;;;;;35.75;16.25;;;;;;;4.37;53.49;100241.72;4460205;31;33788;-87
2022/03/05 04:35:34;;;;;;;30.10;14.45;;;;;;;4.35;53.34;100235.62;4459458;31;34155;-87
2022/03/05 04:38:03;;;;;;;28.67;14.43;;;;;;;4.12;53.67;100236.75;4468162;32;31734;-86
2022/03/05 04:40:31;;;;;;;27.23;14.90;;;;;;;4.10;53.63;100233.28;4455999;32;33290;-87
2022/03/05 04:42:59;;;;;;;32.58;14.73;;;;;;;4.18;53.30;100246.28;4449747;32;32677;-86
2022/03/05 04:45:27;;;;;;;32.25;14.65;;;;;;;4.16;53.27;100253.28;4458100;32;33860;-88
2022/03/05 04:47:55;;;;;;;29.52;14.05;;;;;;;4.18;53.30;100246.28;4465771;32;33535;-88
2022/03/05 04:50:23;;;;;;;26.58;13.82;;;;;;;4.17;53.36;100241.94;4450006;31;35579;-87
2022/03/05 04:52:51;;;;;;;25.30;13.35;;;;;;;4.09;53.54;100246.38;4455758;32;34324;-87
2022/03/05 04:55:19;;;;;;;29.45;13.82;;;;;;;4.16;53.61;100247.19;4464234;32;34322;-86
2022/03/05 04:57:46;;;;;;;28.83;13.82;;;;;;;4.26;53.30;100240.97;4456489;31;33069;-85
2022/03/05 05:00:14;;;;;;;31.05;12.40;;;;;;;4.30;52.99;100243.53;4452037;32;33005;-85
2022/03/05 05:02:42;;;;;;;31.73;13.80;;;;;;;4.28;53.00;100234.84;4463217;32;34301;-86
2022/03/05 05:05:10;;;;;;;25.85;12.68;;;;;;;4.18;53.21;100246.28;4463575;31;32501;-86
2022/03/05 05:07:38;;;;;;;29.75;13.65;;;;;;;4.11;53.29;100244.63;4460563;31;32502;-85
2022/03/05 05:10:06;;;;;;;31.12;14.68;;;;;;;4.28;53.05;100249.69;4463523;32;32757;-86
2022/03/05 05:12:34;;;;;;;25.70;12.07;;;;;;;4.16;53.58;100248.03;4457606;31;33935;-86
2022/03/05 05:15:04;;;;;;;25.40;12.65;;;;;;;4.18;53.29;100246.28;4451802;31;34281;-86
2022/03/05 05:17:36;;;;;;;23.17;11.70;;;;;;;4.23;53.34;100256.69;4469946;32;33322;-86
2022/03/05 05:20:08;;;;;;;25.55;11.57;;;;;;;4.27;53.28;100248.81;4471562;32;33904;-86
2022/03/05 05:22:36;;;;;;;24.98;12.63;;;;;;;4.28;52.88;100258.38;4456274;32;32827;-84
2022/03/05 05:25:06;;;;;;;26.42;12.77;;;;;;;4.22;52.99;100253.19;4449170;32;34635;-84
2022/03/05 05:27:37;;;;;;;28.95;10.60;;;;;;;4.41;52.68;100259.09;4458532;31;34087;-85
2022/03/05 05:30:07;;;;;;;18.75;9.75;;;;;;;4.34;52.73;100258.31;4457538;32;33807;-85
2022/03/05 05:32:34;;;;;;;29.70;13.18;;;;;;;4.37;52.94;100258.28;4470609;32;34567;-84
2022/03/05 05:35:02;;;;;;;31.77;14.40;;;;;;;4.12;53.50;100259.41;4456940;32;32551;-85
2022/03/05 05:37:30;;;;;;;28.40;13.07;;;;;;;4.15;53.31;100262.00;4449308;32;31950;-85
2022/03/05 05:39:58;;;;;;;34.97;14.23;;;;;;;3.93;53.67;100266.56;4470128;32;33446;-84
2022/03/05 05:42:26;;;;;;;32.20;14.93;;;;;;;4.12;53.46;100267.25;4470947;31;33587;-85
2022/03/05 05:44:54;;;;;;;32.28;14.27;;;;;;;4.35;53.01;100264.41;4450764;31;32454;-86
2022/03/05 05:47:21;;;;;;;28.50;12.88;;;;;;;4.36;53.00;100264.37;4457103;32;33091;-85
2022/03/05 05:49:50;;;;;;;27.92;14.45;;;;;;;4.65;52.12;100268.41;4471026;32;33292;-85
2022/03/05 05:52:18;;;;;;;36.30;14.60;;;;;;;4.44;52.28;100271.28;4470546;32;33581;-84
2022/03/05 05:54:45;;;;;;;33.03;13.95;;;;;;;4.40;52.56;100278.28;4470275;32;34051;-84
2022/03/05 05:57:13;;;;;;;32.47;15.13;;;;;;;4.52;52.44;100272.94;4459057;31;33217;-84
2022/03/05 05:59:41;;;;;;;36.50;15.50;;;;;;;4.54;52.43;100275.50;4484215;32;33847;-86
2022/03/05 06:02:09;;;;;;;35.90;15.48;;;;;;;4.49;52.69;100278.19;4461263;32;32816;-85
2022/03/05 06:04:37;;;;;;;32.00;14.05;;;;;;;4.50;52.70;100279.91;4447914;32;33191;-85
2022/03/05 06:07:05;;;;;;;32.95;15.43;;;;;;;4.62;52.56;100276.31;4456921;32;34575;-86
2022/03/05 06:09:32;;;;;;;31.10;14.93;;;;;;;4.65;52.56;100284.09;4463218;31;33360;-86
2022/03/05 06:12:00;;;;;;;26.67;13.93;;;;;;;4.59;52.86;100289.41;4457037;32;34750;-86
2022/03/05 06:14:28;;;;;;;38.80;16.35;;;;;;;4.54;53.29;100294.69;4458655;31;33712;-86
2022/03/05 06:16:56;;;;;;;35.30;15.85;;;;;;;4.96;51.53;100288.97;4458280;31;33047;-86
2022/03/05 06:19:24;;;;;;;32.75;13.15;;;;;;;4.76;51.99;100290.09;4461732;32;33380;-86
2022/03/05 06:21:51;;;;;;;33.15;13.80;;;;;;;4.86;52.08;100298.69;4452085;32;34571;-86
2022/03/05 06:24:20;;;;;;;26.65;13.07;;;;;;;4.46;53.01;100298.25;4447218;32;33568;-85
2022/03/05 06:26:49;;;;;;;27.67;12.85;;;;;;;4.56;53.30;100305.16;4456900;32;33442;-86
2022/03/05 06:29:16;;;;;;;26.50;12.18;;;;;;;4.60;53.24;100304.19;4464232;32;33003;-86
2022/03/05 06:31:44;;;;;;;25.88;12.32;;;;;;;4.73;53.31;100308.41;4472042;31;33955;-86
2022/03/05 06:34:12;;;;;;;26.40;12.32;;;;;;;4.79;53.78;100308.34;4469350;32;33318;-87
2022/03/05 06:36:40;;;;;;;26.90;12.32;;;;;;;4.84;53.57;100309.19;4470562;32;33028;-86
2022/03/05 06:39:07;;;;;;;20.67;10.90;;;;;;;4.98;53.11;100310.72;4459718;31;33943;-87
2022/03/05 06:41:35;;;;;;;20.65;11.20;;;;;;;5.12;52.57;100312.28;4471047;31;34241;-87
2022/03/05 06:44:03;;;;;;;21.80;11.75;;;;;;;5.09;52.68;100311.47;4461862;31;33301;-86
2022/03/05 06:46:31;;;;;;;22.55;10.45;;;;;;;5.16;52.43;100313.09;4471589;31;33572;-87
2022/03/05 06:48:59;;;;;;;22.70;11.82;;;;;;;5.16;52.40;100313.09;4462286;31;33716;-87
2022/03/05 06:51:26;;;;;;;23.42;11.68;;;;;;;5.26;51.88;100314.72;4464034;31;33718;-86
2022/03/05 06:53:54;;;;;;;26.23;12.27;;;;;;;5.31;52.00;100320.75;4458696;31;34106;-86
2022/03/05 06:56:23;;;;;;;20.05;10.73;;;;;;;5.27;52.17;100310.34;4453870;31;32838;-86
2022/03/05 06:58:50;;;;;;;22.35;11.38;;;;;;;5.38;52.24;100314.56;4470833;32;34637;-86
2022/03/05 07:01:17;;;;;;;22.87;11.27;;;;;;;5.52;51.35;100313.50;4471225;31;34314;-86
2022/03/05 07:03:46;;;;;;;23.67;10.63;;;;;;;5.36;51.62;100316.34;4460733;32;33638;-86
2022/03/05 07:06:13;;;;;;;16.45;9.38;;;;;;;5.51;51.43;100309.16;4469491;31;33792;-86
2022/03/05 07:08:41;;;;;;;24.77;10.70;;;;;;;5.48;51.89;100315.28;4461219;32;33814;-86
2022/03/05 07:11:09;;;;;;;20.50;11.05;;;;;;;5.55;51.58;100321.28;4460017;31;32796;-86
2022/03/05 07:13:36;;;;;;;23.00;10.95;;;;;;;5.56;51.20;100317.81;4449697;32;32647;-86
2022/03/05 07:16:05;;;;;;;22.08;11.25;;;;;;;5.68;50.51;100316.72;4469767;32;33811;-87
2022/03/05 07:18:33;;;;;;;22.48;11.75;;;;;;;5.66;50.63;100319.38;4451805;31;32818;-86
2022/03/05 07:21:01;;;;;;;19.08;10.00;;;;;;;5.83;50.06;100317.34;4459828;31;33451;-87
2022/03/05 07:23:34;;;;;;;19.17;9.63;;;;;;;5.85;50.13;100323.44;4463491;32;34337;-87
2022/03/05 07:26:01;;;;;;;16.80;9.25;;;;;;;5.75;49.18;100315.75;4473977;32;33401;-86
2022/03/05 07:28:29;;;;;;;17.05;8.73;;;;;;;5.80;48.42;100313.94;4472254;31;34026;-86
2022/03/05 07:30:56;;;;;;;16.12;8.05;;;;;;;6.06;48.32;100313.53;4460375;31;34677;-87
2022/03/05 07:33:26;;;;;;;15.07;8.05;;;;;;;6.45;45.79;100313.69;4452748;32;33064;-87
2022/03/05 07:35:54;;;;;;;12.60;6.55;;;;;;;6.56;44.76;100314.38;4457650;31;32372;-86
2022/03/05 07:38:22;;;;;;;14.60;7.30;;;;;;;6.59;44.59;100322.16;4446280;32;33525;-86
2022/03/05 07:40:50;;;;;;;12.88;6.93;;;;;;;6.60;44.78;100318.69;4460313;32;33616;-88
2022/03/05 07:43:18;;;;;;;14.38;7.20;;;;;;;6.20;47.21;100319.38;4465170;31;34774;-89
2022/03/05 07:45:45;;;;;;;14.15;7.05;;;;;;;6.22;47.04;100320.25;4466955;32;34431;-87
2022/03/05 07:48:14;;;;;;;17.62;8.07;;;;;;;6.22;47.07;100315.00;4471982;32;33494;-88
2022/03/05 07:50:47;;;;;;;12.43;6.67;;;;;;;6.37;47.39;100314.72;4465905;31;33671;-88
2022/03/05 07:53:15;;;;;;;18.12;7.97;;;;;;;6.86;45.24;100319.00;4452353;32;32921;-87
2022/03/05 07:55:43;;;;;;;14.25;6.12;;;;;;;6.67;46.06;100328.16;4450489;32;32464;-87
2022/03/05 07:58:10;;;;;;;13.82;7.03;;;;;;;6.43;45.38;100334.72;4457698;32;33350;-88
2022/03/05 08:00:38;;;;;;;15.68;7.20;;;;;;;5.71;47.38;100338.53;4451474;32;34290;-88
2022/03/05 08:03:06;;;;;;;13.07;6.72;;;;;;;6.50;44.80;100338.94;4470665;32;33920;-86
2022/03/05 08:05:34;;;;;;;11.65;5.97;;;;;;;6.64;44.41;100333.44;4471478;32;32700;-86
2022/03/05 08:08:02;;;;;;;9.45;5.28;;;;;;;6.54;45.21;100334.50;4460940;31;34531;-87
2022/03/05 08:10:30;;;;;;;13.88;5.95;;;;;;;6.38;46.06;100340.06;4456161;32;34002;-86
2022/03/05 08:12:58;;;;;;;13.23;5.43;;;;;;;6.63;45.33;100336.97;4474355;32;33750;-86
2022/03/05 08:15:25;;;;;;;8.43;4.85;;;;;;;6.54;45.46;100337.12;4456415;32;34358;-86
2022/03/05 08:17:58;;;;;;;10.93;5.90;;;;;;;5.98;46.94;100349.47;4448537;32;32682;-87
2022/03/05 08:20:28;;;;;;;12.98;5.25;;;;;;;6.14;46.99;100340.47;4461949;32;34213;-87
2022/03/05 08:22:58;;;;;;;10.73;6.03;;;;;;;6.31;45.96;100340.16;4462087;32;32994;-87
2022/03/05 08:25:26;;;;;;;15.30;6.30;;;;;;;5.36;47.83;100353.00;4462784;32;33008;-86
2022/03/05 08:27:54;;;;;;;13.00;6.07;;;;;;;5.49;48.27;100350.19;4456468;32;33051;-84
2022/03/05 08:30:22;;;;;;;11.38;5.85;;;;;;;5.76;47.91;100347.19;4465352;32;34611;-84
2022/03/05 08:32:49;;;;;;;12.98;5.80;;;;;;;5.65;48.03;100354.34;4468420;32;34048;-84
2022/03/05 08:35:18;;;;;;;10.05;5.22;;;;;;;5.85;47.80;100352.28;4457157;32;33690;-85
2022/03/05 08:37:46;;;;;;;12.32;6.85;;;;;;;6.23;47.29;100350.81;4468942;32;33484;-84
2022/03/05 08:40:14;;;;;;;15.48;6.82;;;;;;;5.80;48.19;100356.72;4464265;32;33508;-84
2022/03/05 08:42:43;;;;;;;14.65;6.70;;;;;;;5.90;47.98;100358.31;4469699;32;31982;-85
2022/03/05 08:45:11;;;;;;;13.13;6.80;;;;;;;5.64;48.75;100363.06;4469720;32;34018;-88
2022/03/05 08:47:39;;;;;;;11.82;6.12;;;;;;;6.02;48.48;100354.66;4462582;32;33466;-88
2022/03/05 08:50:08;;;;;;;11.45;6.80;;;;;;;6.51;47.28;100352.97;4470393;32;34158;-87
2022/03/05 08:52:36;;;;;;;11.18;6.78;;;;;;;6.15;48.38;100356.19;4457396;32;34039;-85
2022/03/05 08:55:09;;;;;;;15.00;6.70;;;;;;;6.07;48.12;100359.81;4469667;32;33121;-85
2022/03/05 08:57:39;;;;;;;11.85;6.72;;;;;;;5.80;48.43;100356.72;4457048;32;32915;-83
2022/03/05 09:00:09;;;;;;;10.93;6.18;;;;;;;6.52;46.74;100354.69;4472781;32;33176;-86
2022/03/05 09:02:37;;;;;;;17.92;7.80;;;;;;;6.52;46.21;100360.78;4449540;32;34121;-85
2022/03/05 09:05:06;;;;;;;19.15;7.10;;;;;;;6.48;46.41;100356.50;4463764;32;33304;-85
2022/03/05 09:07:33;;;;;;;13.13;5.95;;;;;;;6.27;46.29;100354.25;4475740;32;34309;-85
2022/03/05 09:10:01;;;;;;;13.70;7.03;;;;;;;6.02;47.56;100359.03;4467870;32;33893;-86
2022/03/05 09:12:29;;;;;;;16.70;7.55;;;;;;;6.28;47.20;100356.84;4469623;32;33580;-85
2022/03/05 09:14:56;;;;;;;14.07;6.22;;;;;;;6.52;46.02;100355.53;4471029;32;32611;-85
2022/03/05 09:17:24;;;;;;;12.68;5.65;;;;;;;5.75;46.49;100353.31;4468822;32;34770;-85
2022/03/05 09:19:57;;;;;;;14.70;6.97;;;;;;;5.63;46.99;100356.09;4459335;32;33271;-85
2022/03/05 09:22:25;;;;;;;11.85;6.15;;;;;;;5.71;46.93;100361.25;4473287;32;33806;-84
2022/03/05 09:24:53;;;;;;;10.68;5.62;;;;;;;6.48;45.06;100347.75;4464695;32;34150;-84
2022/03/05 09:27:21;;;;;;;14.48;6.78;;;;;;;6.77;43.86;100345.44;4470067;32;34510;-85
2022/03/05 09:29:48;;;;;;;10.32;5.97;;;;;;;6.67;44.55;100344.75;4462062;32;34697;-85
2022/03/05 09:32:16;;;;;;;14.65;6.07;;;;;;;6.64;44.08;100339.56;4454808;32;33718;-85
2022/03/05 09:34:44;;;;;;;17.15;6.22;;;;;;;6.88;44.54;100337.34;4457229;32;33009;-85
2022/03/05 09:37:17;;;;;;;10.65;5.93;;;;;;;7.26;42.90;100339.19;4468683;32;32859;-85
2022/03/05 09:39:47;;;;;;;11.55;6.22;;;;;;;7.32;44.14;100341.69;4469388;32;34024;-85
2022/03/05 09:42:14;;;;;;;13.80;6.50;;;;;;;7.54;41.93;100338.56;4457671;32;33013;-84
2022/03/05 09:44:42;;;;;;;12.27;6.07;;;;;;;7.73;41.64;100339.88;4463841;32;33010;-85
2022/03/05 09:47:10;;;;;;;11.35;5.62;;;;;;;7.68;39.99;100333.88;4470161;32;33479;-85
2022/03/05 09:49:38;;;;;;;11.82;5.80;;;;;;;7.85;39.15;100329.09;4456808;32;32629;-85
2022/03/05 09:52:07;;;;;;;12.45;6.47;;;;;;;8.06;39.47;100329.44;4468692;32;33788;-84
2022/03/05 09:54:36;;;;;;;11.35;5.80;;;;;;;8.27;37.65;100325.44;4449355;32;32776;-85
2022/03/05 09:57:13;;;;;;;12.02;5.37;;;;;;;7.95;38.32;100330.59;4455174;32;34949;-85
2022/03/05 09:59:41;;;;;;;12.30;6.35;;;;;;;8.10;37.59;100331.09;4462143;32;32455;-85
2022/03/05 10:02:11;;;;;;;8.23;5.18;;;;;;;8.06;37.60;100332.94;4469576;32;33590;-85
2022/03/05 10:04:41;;;;;;;11.10;5.47;;;;;;;8.18;36.80;100323.91;4454301;32;32419;-84
2022/03/05 10:07:19;;;;;;;13.10;6.75;;;;;;;7.90;37.45;100332.47;4468807;32;33973;-85
2022/03/05 10:09:48;;;;;;;11.60;4.80;;;;;;;7.86;37.69;100330.81;4467226;32;34069;-85
2022/03/05 10:12:32;;;;;;;13.23;6.15;;;;;;;7.88;37.28;100325.50;4468220;32;34439;-85
2022/03/05 10:15:06;;;;;;;10.40;5.70;;;;;;;7.24;39.21;100327.84;4468711;32;32082;-85
2022/03/05 10:17:52;;;;;;;8.73;5.18;;;;;;;7.81;37.37;100327.41;4468981;32;33518;-85
2022/03/05 10:20:23;;;;;;;12.32;5.85;;;;;;;7.57;39.54;100328.00;4476448;32;33925;-85
2022/03/05 10:23:06;;;;;;;12.70;6.28;;;;;;;8.18;37.56;100321.25;4464917;32;34216;-85
2022/03/05 10:25:38;;;;;;;;;;;;;;;8.45;36.45;100320.59;4470571;32;33183;-85
2022/03/05 10:28:12;;;;;;;9.98;5.25;;;;;;;8.48;35.99;100314.34;4468704;32;33469;-85
2022/03/05 10:30:42;;;;;;;9.32;5.18;;;;;;;8.66;35.69;100320.91;4458769;32;33614;-85
2022/03/05 10:33:29;;;;;;;10.18;5.30;;;;;;;8.92;35.27;100315.75;4467347;32;33948;-85
2022/03/05 10:35:59;;;;;;;10.55;6.05;;;;;;;8.92;35.49;100314.87;4456237;32;33331;-85
2022/03/05 10:38:44;;;;;;;10.70;5.43;;;;;;;8.98;34.94;100310.31;4463757;32;32389;-85
2022/03/05 10:41:13;;;;;;;10.95;4.90;;;;;;;9.27;35.29;100316.50;4474109;32;33696;-85
2022/03/05 10:43:41;;;;;;;12.35;5.60;;;;;;;9.49;34.33;100312.31;4468568;32;33682;-85
2022/03/05 10:46:08;;;;;;;10.27;5.20;;;;;;;9.92;34.05;100305.66;4467881;32;33117;-85
2022/03/05 10:48:40;;;;;;;11.80;5.50;;;;;;;10.13;33.61;100305.84;4454557;32;33992;-84
2022/03/05 10:51:17;;;;;;;10.80;6.30;;;;;;;10.36;31.58;100295.41;4468049;32;34122;-85
2022/03/05 10:53:47;;;;;;;9.32;5.45;;;;;;;9.86;33.75;100303.19;4455478;32;33937;-85
2022/03/05 10:56:31;;;;;;;10.32;4.72;;;;;;;10.01;32.26;100302.69;4455534;32;33088;-85
2022/03/05 10:59:10;;;;;;;9.20;4.75;;;;;;;9.29;32.60;100308.53;4469133;32;33877;-85
2022/03/05 11:01:40;;;;;;;14.57;4.75;;;;;;;8.95;33.06;100305.13;4469062;32;33607;-85
2022/03/05 11:04:11;;;;;;;10.38;5.07;;;;;;;8.72;33.40;100302.28;4455486;32;34096;-85
2022/03/05 11:06:43;;;;;;;9.65;4.55;;;;;;;8.60;33.93;100300.88;4466725;32;33498;-85
2022/03/05 11:09:12;;;;;;;8.57;4.53;;;;;;;8.50;33.56;100301.16;4455883;32;34448;-85
2022/03/05 11:11:43;;;;;;;13.27;5.10;;;;;;;7.91;34.23;100307.03;4455901;32;32902;-85
2022/03/05 11:14:13;;;;;;;12.13;5.45;;;;;;;8.07;33.95;100303.12;4467465;32;33701;-85
2022/03/05 11:16:42;;;;;;;8.27;4.72;;;;;;;8.07;35.33;100302.25;4454884;32;33905;-85
2022/03/05 11:19:10;;;;;;;9.07;5.07;;;;;;;8.12;36.09;100297.75;4461016;32;32957;-85
2022/03/05 11:21:38;;;;;;;9.88;5.60;;;;;;;8.50;33.79;100296.78;4461653;32;34703;-85
2022/03/05 11:24:06;;;;;;;10.13;5.78;;;;;;;8.28;34.85;100288.53;4468918;32;33751;-85
2022/03/05 11:26:37;;;;;;;9.48;5.53;;;;;;;8.43;35.06;100289.94;4455031;32;34340;-85
2022/03/05 11:29:27;;;;;;;11.15;5.80;;;;;;;8.37;34.82;100290.97;4455814;32;34245;-85
2022/03/05 11:32:15;;;;;;;10.63;4.72;;;;;;;8.39;34.75;100289.13;4467271;32;34484;-85